sensor_id;sensor_type;location;lat;lon;timestamp;P1;durP1;ratioP1;P2;durP2;ratioP2
3000;SDS011;1510;51.072;6.678;2023-02-22T00:00:55;872.07;;;780.03;;
3000;SDS011;1510;51.072;6.678;2023-02-22T00:03:28;871.70;;;778.20;;
3000;SDS011;1510;51.072;6.678;2023-02-22T00:05:56;859.00;;;767.47;;
3000;SDS011;1510;51.072;6.678;2023-02-22T00:08:27;874.37;;;783.17;;
3000;SDS011;1510;51.072;6.678;2023-02-22T00:10:55;881.93;;;782.00;;
3000;SDS011;1510;51.072;6.678;2023-02-22T00:13:22;888.93;;;797.80;;
3000;SDS011;1510;51.072;6.678;2023-02-22T00:15:49;888.27;;;795.87;;
3000;SDS011;1510;51.072;6.678;2023-02-22T00:18:16;877.57;;;785.87;;
3000;SDS011;1510;51.072;6.678;2023-02-22T00:20:45;890.33;;;774.40;;
3000;SDS011;1510;51.072;6.678;2023-02-22T00:23:13;909.77;;;782.83;;
3000;SDS011;1510;51.072;6.678;2023-02-22T00:25:43;863.60;;;769.23;;
3000;SDS011;1510;51.072;6.678;2023-02-22T00:28:10;862.77;;;767.57;;
3000;SDS011;1510;51.072;6.678;2023-02-22T00:30:39;872.43;;;765.30;;
3000;SDS011;1510;51.072;6.678;2023-02-22T00:33:07;856.90;;;764.30;;
3000;SDS011;1510;51.072;6.678;2023-02-22T00:35:35;964.93;;;774.50;;
3000;SDS011;1510;51.072;6.678;2023-02-22T00:38:03;869.33;;;773.00;;
3000;SDS011;1510;51.072;6.678;2023-02-22T00:40:31;891.73;;;769.57;;
3000;SDS011;1510;51.072;6.678;2023-02-22T00:42:59;895.60;;;771.17;;
3000;SDS011;1510;51.072;6.678;2023-02-22T00:45:28;919.43;;;771.70;;
3000;SDS011;1510;51.072;6.678;2023-02-22T00:47:56;862.40;;;764.67;;
3000;SDS011;1510;51.072;6.678;2023-02-22T00:50:24;873.80;;;767.63;;
3000;SDS011;1510;51.072;6.678;2023-02-22T00:52:52;935.93;;;758.87;;
3000;SDS011;1510;51.072;6.678;2023-02-22T00:55:22;976.40;;;770.43;;
3000;SDS011;1510;51.072;6.678;2023-02-22T00:57:50;863.67;;;768.00;;
3000;SDS011;1510;51.072;6.678;2023-02-22T01:00:18;866.87;;;756.10;;
3000;SDS011;1510;51.072;6.678;2023-02-22T01:02:48;895.00;;;764.07;;
3000;SDS011;1510;51.072;6.678;2023-02-22T01:05:15;918.33;;;770.40;;
3000;SDS011;1510;51.072;6.678;2023-02-22T01:07:45;905.97;;;764.50;;
3000;SDS011;1510;51.072;6.678;2023-02-22T01:10:12;876.63;;;781.20;;
3000;SDS011;1510;51.072;6.678;2023-02-22T01:12:40;906.80;;;766.53;;
3000;SDS011;1510;51.072;6.678;2023-02-22T01:15:08;887.00;;;771.40;;
3000;SDS011;1510;51.072;6.678;2023-02-22T01:17:36;869.67;;;762.00;;
3000;SDS011;1510;51.072;6.678;2023-02-22T01:20:05;886.70;;;766.90;;
3000;SDS011;1510;51.072;6.678;2023-02-22T01:22:36;946.57;;;758.33;;
3000;SDS011;1510;51.072;6.678;2023-02-22T01:25:03;907.53;;;759.37;;
3000;SDS011;1510;51.072;6.678;2023-02-22T01:27:31;894.80;;;752.67;;
3000;SDS011;1510;51.072;6.678;2023-02-22T01:29:59;925.20;;;746.50;;
3000;SDS011;1510;51.072;6.678;2023-02-22T01:32:32;897.57;;;768.20;;
3000;SDS011;1510;51.072;6.678;2023-02-22T01:34:59;883.03;;;767.70;;
3000;SDS011;1510;51.072;6.678;2023-02-22T01:37:28;903.27;;;759.07;;
3000;SDS011;1510;51.072;6.678;2023-02-22T01:39:55;853.13;;;758.27;;
3000;SDS011;1510;51.072;6.678;2023-02-22T01:42:22;930.67;;;764.70;;
3000;SDS011;1510;51.072;6.678;2023-02-22T01:47:50;939.30;;;758.87;;
3000;SDS011;1510;51.072;6.678;2023-02-22T01:50:17;990.80;;;779.00;;
3000;SDS011;1510;51.072;6.678;2023-02-22T01:52:44;933.87;;;779.67;;
3000;SDS011;1510;51.072;6.678;2023-02-22T01:55:11;911.07;;;781.17;;
3000;SDS011;1510;51.072;6.678;2023-02-22T01:57:37;1018.57;;;768.80;;
3000;SDS011;1510;51.072;6.678;2023-02-22T02:00:05;924.90;;;762.00;;
3000;SDS011;1510;51.072;6.678;2023-02-22T02:02:35;895.97;;;772.83;;
3000;SDS011;1510;51.072;6.678;2023-02-22T02:05:06;934.57;;;776.60;;
3000;SDS011;1510;51.072;6.678;2023-02-22T02:07:33;900.20;;;762.40;;
3000;SDS011;1510;51.072;6.678;2023-02-22T02:10:03;906.17;;;776.93;;
3000;SDS011;1510;51.072;6.678;2023-02-22T02:12:35;884.00;;;786.63;;
3000;SDS011;1510;51.072;6.678;2023-02-22T02:15:18;884.30;;;786.63;;
3000;SDS011;1510;51.072;6.678;2023-02-22T02:17:47;993.90;;;786.00;;
3000;SDS011;1510;51.072;6.678;2023-02-22T02:20:18;940.03;;;775.83;;
3000;SDS011;1510;51.072;6.678;2023-02-22T02:22:53;925.90;;;781.30;;
3000;SDS011;1510;51.072;6.678;2023-02-22T02:28:42;976.07;;;784.13;;
3000;SDS011;1510;51.072;6.678;2023-02-22T02:34:28;915.63;;;780.50;;
3000;SDS011;1510;51.072;6.678;2023-02-22T02:37:00;945.10;;;777.23;;
3000;SDS011;1510;51.072;6.678;2023-02-22T02:39:34;933.00;;;792.17;;
3000;SDS011;1510;51.072;6.678;2023-02-22T02:42:05;955.50;;;803.07;;
3000;SDS011;1510;51.072;6.678;2023-02-22T02:44:35;952.57;;;792.10;;
3000;SDS011;1510;51.072;6.678;2023-02-22T02:47:08;956.30;;;778.80;;
3000;SDS011;1510;51.072;6.678;2023-02-22T02:49:39;942.27;;;789.03;;
3000;SDS011;1510;51.072;6.678;2023-02-22T02:52:11;991.27;;;794.87;;
3000;SDS011;1510;51.072;6.678;2023-02-22T02:54:41;974.00;;;797.73;;
3000;SDS011;1510;51.072;6.678;2023-02-22T02:57:10;1000.47;;;783.70;;
3000;SDS011;1510;51.072;6.678;2023-02-22T02:59:37;938.10;;;769.10;;
3000;SDS011;1510;51.072;6.678;2023-02-22T03:02:14;993.10;;;781.87;;
3000;SDS011;1510;51.072;6.678;2023-02-22T03:04:56;975.37;;;789.57;;
3000;SDS011;1510;51.072;6.678;2023-02-22T03:07:36;917.83;;;801.00;;
3000;SDS011;1510;51.072;6.678;2023-02-22T03:10:16;1007.83;;;806.60;;
3000;SDS011;1510;51.072;6.678;2023-02-22T03:12:53;935.60;;;796.17;;
3000;SDS011;1510;51.072;6.678;2023-02-22T03:15:28;905.17;;;805.37;;
3000;SDS011;1510;51.072;6.678;2023-02-22T03:18:06;917.60;;;805.53;;
3000;SDS011;1510;51.072;6.678;2023-02-22T03:20:46;899.43;;;804.33;;
3000;SDS011;1510;51.072;6.678;2023-02-22T03:23:20;899.47;;;802.57;;
3000;SDS011;1510;51.072;6.678;2023-02-22T03:25:54;925.50;;;811.93;;
3000;SDS011;1510;51.072;6.678;2023-02-22T03:28:25;973.37;;;817.20;;
3000;SDS011;1510;51.072;6.678;2023-02-22T03:30:53;930.07;;;807.00;;
3000;SDS011;1510;51.072;6.678;2023-02-22T03:33:26;909.67;;;810.63;;
3000;SDS011;1510;51.072;6.678;2023-02-22T03:36:02;938.47;;;812.57;;
3000;SDS011;1510;51.072;6.678;2023-02-22T03:38:35;909.70;;;801.70;;
3000;SDS011;1510;51.072;6.678;2023-02-22T03:41:05;924.83;;;818.27;;
3000;SDS011;1510;51.072;6.678;2023-02-22T03:43:35;928.47;;;814.27;;
3000;SDS011;1510;51.072;6.678;2023-02-22T03:46:05;917.13;;;809.77;;
3000;SDS011;1510;51.072;6.678;2023-02-22T03:48:37;957.50;;;806.00;;
3000;SDS011;1510;51.072;6.678;2023-02-22T03:51:09;914.50;;;790.57;;
3000;SDS011;1510;51.072;6.678;2023-02-22T03:53:38;917.90;;;797.80;;
3000;SDS011;1510;51.072;6.678;2023-02-22T03:56:06;907.10;;;806.03;;
3000;SDS011;1510;51.072;6.678;2023-02-22T03:58:36;910.00;;;799.67;;
3000;SDS011;1510;51.072;6.678;2023-02-22T04:01:07;920.53;;;804.97;;
3000;SDS011;1510;51.072;6.678;2023-02-22T04:03:36;919.13;;;794.10;;
3000;SDS011;1510;51.072;6.678;2023-02-22T04:06:04;883.17;;;777.33;;
3000;SDS011;1510;51.072;6.678;2023-02-22T04:08:31;898.27;;;785.73;;
3000;SDS011;1510;51.072;6.678;2023-02-22T04:10:58;888.80;;;777.60;;
3000;SDS011;1510;51.072;6.678;2023-02-22T04:13:25;909.50;;;809.27;;
3000;SDS011;1510;51.072;6.678;2023-02-22T04:15:52;887.50;;;789.70;;
3000;SDS011;1510;51.072;6.678;2023-02-22T04:18:19;894.53;;;766.50;;
3000;SDS011;1510;51.072;6.678;2023-02-22T04:20:47;905.03;;;770.10;;
3000;SDS011;1510;51.072;6.678;2023-02-22T04:23:14;917.07;;;802.77;;
3000;SDS011;1510;51.072;6.678;2023-02-22T04:25:41;914.83;;;784.57;;
3000;SDS011;1510;51.072;6.678;2023-02-22T04:28:08;899.77;;;774.57;;
3000;SDS011;1510;51.072;6.678;2023-02-22T04:30:35;909.40;;;781.10;;
3000;SDS011;1510;51.072;6.678;2023-02-22T04:33:02;902.60;;;799.17;;
3000;SDS011;1510;51.072;6.678;2023-02-22T04:35:29;904.70;;;790.37;;
3000;SDS011;1510;51.072;6.678;2023-02-22T04:37:57;922.83;;;790.40;;
3000;SDS011;1510;51.072;6.678;2023-02-22T04:40:23;937.50;;;771.47;;
3000;SDS011;1510;51.072;6.678;2023-02-22T04:42:50;887.87;;;767.97;;
3000;SDS011;1510;51.072;6.678;2023-02-22T04:45:17;892.73;;;775.27;;
3000;SDS011;1510;51.072;6.678;2023-02-22T04:47:44;918.53;;;804.20;;
3000;SDS011;1510;51.072;6.678;2023-02-22T04:50:10;942.37;;;791.17;;
3000;SDS011;1510;51.072;6.678;2023-02-22T04:52:38;947.87;;;798.63;;
3000;SDS011;1510;51.072;6.678;2023-02-22T04:55:06;963.33;;;799.37;;
3000;SDS011;1510;51.072;6.678;2023-02-22T04:57:33;927.80;;;797.87;;
3000;SDS011;1510;51.072;6.678;2023-02-22T05:00:00;908.87;;;778.17;;
3000;SDS011;1510;51.072;6.678;2023-02-22T05:02:28;960.93;;;774.70;;
3000;SDS011;1510;51.072;6.678;2023-02-22T05:04:55;961.10;;;783.73;;
3000;SDS011;1510;51.072;6.678;2023-02-22T05:07:21;926.80;;;759.83;;
3000;SDS011;1510;51.072;6.678;2023-02-22T05:09:48;936.13;;;794.13;;
3000;SDS011;1510;51.072;6.678;2023-02-22T05:12:16;938.87;;;777.87;;
3000;SDS011;1510;51.072;6.678;2023-02-22T05:14:43;903.07;;;779.00;;
3000;SDS011;1510;51.072;6.678;2023-02-22T05:17:10;912.73;;;812.00;;
3000;SDS011;1510;51.072;6.678;2023-02-22T05:19:36;887.27;;;788.57;;
3000;SDS011;1510;51.072;6.678;2023-02-22T05:22:06;912.07;;;803.30;;
3000;SDS011;1510;51.072;6.678;2023-02-22T05:24:33;890.90;;;784.80;;
3000;SDS011;1510;51.072;6.678;2023-02-22T05:26:59;916.10;;;797.47;;
3000;SDS011;1510;51.072;6.678;2023-02-22T05:29:27;930.43;;;788.90;;
3000;SDS011;1510;51.072;6.678;2023-02-22T05:31:54;914.13;;;789.60;;
3000;SDS011;1510;51.072;6.678;2023-02-22T05:34:22;911.30;;;810.20;;
3000;SDS011;1510;51.072;6.678;2023-02-22T05:36:49;905.83;;;805.80;;
3000;SDS011;1510;51.072;6.678;2023-02-22T05:39:15;916.67;;;780.20;;
3000;SDS011;1510;51.072;6.678;2023-02-22T05:41:42;940.77;;;793.83;;
3000;SDS011;1510;51.072;6.678;2023-02-22T05:44:09;909.37;;;799.80;;
3000;SDS011;1510;51.072;6.678;2023-02-22T05:46:37;900.67;;;783.23;;
3000;SDS011;1510;51.072;6.678;2023-02-22T05:49:04;928.17;;;826.90;;
3000;SDS011;1510;51.072;6.678;2023-02-22T05:51:31;915.27;;;814.67;;
3000;SDS011;1510;51.072;6.678;2023-02-22T05:53:58;938.93;;;836.47;;
3000;SDS011;1510;51.072;6.678;2023-02-22T05:56:25;955.60;;;851.83;;
3000;SDS011;1510;51.072;6.678;2023-02-22T05:58:54;961.73;;;857.70;;
3000;SDS011;1510;51.072;6.678;2023-02-22T06:01:21;957.70;;;854.60;;
3000;SDS011;1510;51.072;6.678;2023-02-22T06:03:49;952.50;;;847.47;;
3000;SDS011;1510;51.072;6.678;2023-02-22T06:06:17;960.03;;;854.33;;
3000;SDS011;1510;51.072;6.678;2023-02-22T06:08:45;951.60;;;845.83;;
3000;SDS011;1510;51.072;6.678;2023-02-22T06:11:12;953.83;;;848.53;;
3000;SDS011;1510;51.072;6.678;2023-02-22T06:13:39;988.60;;;847.13;;
3000;SDS011;1510;51.072;6.678;2023-02-22T06:16:06;960.60;;;826.23;;
3000;SDS011;1510;51.072;6.678;2023-02-22T06:18:33;951.10;;;833.40;;
3000;SDS011;1510;51.072;6.678;2023-02-22T06:21:01;995.17;;;845.97;;
3000;SDS011;1510;51.072;6.678;2023-02-22T06:23:28;987.47;;;814.40;;
3000;SDS011;1510;51.072;6.678;2023-02-22T06:25:55;928.50;;;796.97;;
3000;SDS011;1510;51.072;6.678;2023-02-22T06:28:21;936.73;;;774.93;;
3000;SDS011;1510;51.072;6.678;2023-02-22T06:30:48;921.23;;;780.93;;
3000;SDS011;1510;51.072;6.678;2023-02-22T06:33:15;919.20;;;796.13;;
3000;SDS011;1510;51.072;6.678;2023-02-22T06:35:42;926.47;;;782.50;;
3000;SDS011;1510;51.072;6.678;2023-02-22T06:38:10;909.13;;;777.30;;
3000;SDS011;1510;51.072;6.678;2023-02-22T06:40:37;919.23;;;788.63;;
3000;SDS011;1510;51.072;6.678;2023-02-22T06:43:04;920.20;;;763.40;;
3000;SDS011;1510;51.072;6.678;2023-02-22T06:45:30;945.30;;;770.83;;
3000;SDS011;1510;51.072;6.678;2023-02-22T06:47:59;922.07;;;756.03;;
3000;SDS011;1510;51.072;6.678;2023-02-22T06:50:36;920.60;;;756.50;;
3000;SDS011;1510;51.072;6.678;2023-02-22T06:53:03;933.43;;;771.10;;
3000;SDS011;1510;51.072;6.678;2023-02-22T06:55:32;934.80;;;772.17;;
3000;SDS011;1510;51.072;6.678;2023-02-22T06:58:00;939.13;;;763.40;;
3000;SDS011;1510;51.072;6.678;2023-02-22T07:00:29;920.20;;;791.90;;
3000;SDS011;1510;51.072;6.678;2023-02-22T07:02:57;914.97;;;776.73;;
3000;SDS011;1510;51.072;6.678;2023-02-22T07:05:25;937.10;;;787.13;;
3000;SDS011;1510;51.072;6.678;2023-02-22T07:07:53;920.50;;;774.63;;
3000;SDS011;1510;51.072;6.678;2023-02-22T07:10:27;921.47;;;787.17;;
3000;SDS011;1510;51.072;6.678;2023-02-22T07:12:56;905.80;;;778.17;;
3000;SDS011;1510;51.072;6.678;2023-02-22T07:15:23;932.13;;;781.20;;
3000;SDS011;1510;51.072;6.678;2023-02-22T07:17:52;915.20;;;783.40;;
3000;SDS011;1510;51.072;6.678;2023-02-22T07:20:19;905.43;;;786.67;;
3000;SDS011;1510;51.072;6.678;2023-02-22T07:22:47;908.47;;;793.10;;
3000;SDS011;1510;51.072;6.678;2023-02-22T07:25:14;916.73;;;795.33;;
3000;SDS011;1510;51.072;6.678;2023-02-22T07:27:41;903.73;;;804.40;;
3000;SDS011;1510;51.072;6.678;2023-02-22T07:30:14;911.70;;;813.67;;
3000;SDS011;1510;51.072;6.678;2023-02-22T07:32:42;916.53;;;804.77;;
3000;SDS011;1510;51.072;6.678;2023-02-22T07:35:12;906.43;;;806.27;;
3000;SDS011;1510;51.072;6.678;2023-02-22T07:37:40;902.47;;;803.50;;
3000;SDS011;1510;51.072;6.678;2023-02-22T07:40:08;918.27;;;809.87;;
3000;SDS011;1510;51.072;6.678;2023-02-22T07:42:48;905.70;;;807.70;;
3000;SDS011;1510;51.072;6.678;2023-02-22T07:45:18;904.77;;;806.10;;
3000;SDS011;1510;51.072;6.678;2023-02-22T07:47:45;914.40;;;815.77;;
3000;SDS011;1510;51.072;6.678;2023-02-22T07:50:12;903.23;;;806.53;;
3000;SDS011;1510;51.072;6.678;2023-02-22T07:52:39;895.10;;;799.77;;
3000;SDS011;1510;51.072;6.678;2023-02-22T07:55:06;892.93;;;796.53;;
3000;SDS011;1510;51.072;6.678;2023-02-22T07:57:33;893.37;;;798.30;;
3000;SDS011;1510;51.072;6.678;2023-02-22T07:59:59;876.90;;;782.00;;
3000;SDS011;1510;51.072;6.678;2023-02-22T08:02:28;863.87;;;770.33;;
3000;SDS011;1510;51.072;6.678;2023-02-22T08:04:54;881.90;;;788.90;;
3000;SDS011;1510;51.072;6.678;2023-02-22T08:07:21;860.27;;;770.47;;
3000;SDS011;1510;51.072;6.678;2023-02-22T08:09:48;865.10;;;774.77;;
3000;SDS011;1510;51.072;6.678;2023-02-22T08:12:14;841.27;;;753.27;;
3000;SDS011;1510;51.072;6.678;2023-02-22T08:14:41;836.43;;;750.00;;
3000;SDS011;1510;51.072;6.678;2023-02-22T08:17:08;832.37;;;747.27;;
3000;SDS011;1510;51.072;6.678;2023-02-22T08:19:36;811.93;;;732.27;;
3000;SDS011;1510;51.072;6.678;2023-02-22T08:22:04;810.70;;;732.40;;
3000;SDS011;1510;51.072;6.678;2023-02-22T08:24:31;810.63;;;733.20;;
3000;SDS011;1510;51.072;6.678;2023-02-22T08:26:57;809.40;;;732.60;;
3000;SDS011;1510;51.072;6.678;2023-02-22T08:29:24;798.77;;;724.17;;
3000;SDS011;1510;51.072;6.678;2023-02-22T08:31:57;795.87;;;722.50;;
3000;SDS011;1510;51.072;6.678;2023-02-22T08:34:24;783.07;;;711.10;;
3000;SDS011;1510;51.072;6.678;2023-02-22T08:36:53;753.50;;;683.67;;
3000;SDS011;1510;51.072;6.678;2023-02-22T08:39:20;768.50;;;700.20;;
3000;SDS011;1510;51.072;6.678;2023-02-22T08:41:47;746.17;;;682.77;;
3000;SDS011;1510;51.072;6.678;2023-02-22T08:44:13;710.63;;;659.83;;
3000;SDS011;1510;51.072;6.678;2023-02-22T08:46:40;691.43;;;642.90;;
3000;SDS011;1510;51.072;6.678;2023-02-22T08:49:07;697.57;;;649.03;;
3000;SDS011;1510;51.072;6.678;2023-02-22T08:51:34;660.70;;;617.57;;
3000;SDS011;1510;51.072;6.678;2023-02-22T08:54:04;632.63;;;594.53;;
3000;SDS011;1510;51.072;6.678;2023-02-22T08:56:31;627.00;;;588.90;;
3000;SDS011;1510;51.072;6.678;2023-02-22T08:58:58;622.27;;;586.47;;
3000;SDS011;1510;51.072;6.678;2023-02-22T09:01:26;627.77;;;592.37;;
3000;SDS011;1510;51.072;6.678;2023-02-22T09:03:54;628.30;;;593.10;;
3000;SDS011;1510;51.072;6.678;2023-02-22T09:06:21;616.07;;;583.07;;
3000;SDS011;1510;51.072;6.678;2023-02-22T09:08:52;582.90;;;553.13;;
3000;SDS011;1510;51.072;6.678;2023-02-22T09:11:25;588.03;;;557.73;;
3000;SDS011;1510;51.072;6.678;2023-02-22T09:13:53;562.77;;;534.30;;
3000;SDS011;1510;51.072;6.678;2023-02-22T09:16:20;578.20;;;549.07;;
3000;SDS011;1510;51.072;6.678;2023-02-22T09:18:47;538.67;;;511.63;;
3000;SDS011;1510;51.072;6.678;2023-02-22T09:21:14;512.93;;;488.33;;
3000;SDS011;1510;51.072;6.678;2023-02-22T09:23:41;473.60;;;452.47;;
3000;SDS011;1510;51.072;6.678;2023-02-22T09:26:11;455.00;;;434.33;;
3000;SDS011;1510;51.072;6.678;2023-02-22T09:28:41;409.13;;;391.60;;
3000;SDS011;1510;51.072;6.678;2023-02-22T09:31:08;396.20;;;379.13;;
3000;SDS011;1510;51.072;6.678;2023-02-22T09:33:35;225.37;;;214.90;;
3000;SDS011;1510;51.072;6.678;2023-02-22T09:36:01;191.07;;;182.33;;
3000;SDS011;1510;51.072;6.678;2023-02-22T09:38:28;105.97;;;100.17;;
3000;SDS011;1510;51.072;6.678;2023-02-22T09:41:03;78.03;;;73.33;;
3000;SDS011;1510;51.072;6.678;2023-02-22T09:43:36;51.17;;;47.17;;
3000;SDS011;1510;51.072;6.678;2023-02-22T09:46:13;35.73;;;24.23;;
3000;SDS011;1510;51.072;6.678;2023-02-22T09:48:55;31.90;;;20.00;;
3000;SDS011;1510;51.072;6.678;2023-02-22T09:51:26;27.63;;;16.40;;
3000;SDS011;1510;51.072;6.678;2023-02-22T09:53:59;24.83;;;15.10;;
3000;SDS011;1510;51.072;6.678;2023-02-22T09:56:29;24.93;;;14.03;;
3000;SDS011;1510;51.072;6.678;2023-02-22T09:58:59;25.50;;;14.93;;
3000;SDS011;1510;51.072;6.678;2023-02-22T10:01:30;25.67;;;14.53;;
3000;SDS011;1510;51.072;6.678;2023-02-22T10:04:04;21.40;;;12.00;;
3000;SDS011;1510;51.072;6.678;2023-02-22T10:06:36;23.40;;;14.07;;
3000;SDS011;1510;51.072;6.678;2023-02-22T10:09:08;26.00;;;13.97;;
3000;SDS011;1510;51.072;6.678;2023-02-22T10:11:43;18.33;;;12.40;;
3000;SDS011;1510;51.072;6.678;2023-02-22T10:14:34;25.97;;;12.27;;
3000;SDS011;1510;51.072;6.678;2023-02-22T10:17:23;20.97;;;12.77;;
3000;SDS011;1510;51.072;6.678;2023-02-22T10:20:02;21.27;;;13.50;;
3000;SDS011;1510;51.072;6.678;2023-02-22T10:22:42;23.97;;;13.60;;
3000;SDS011;1510;51.072;6.678;2023-02-22T10:25:18;22.47;;;12.63;;
3000;SDS011;1510;51.072;6.678;2023-02-22T10:27:47;23.33;;;12.97;;
3000;SDS011;1510;51.072;6.678;2023-02-22T10:30:21;22.00;;;12.23;;
3000;SDS011;1510;51.072;6.678;2023-02-22T10:32:52;20.10;;;12.77;;
3000;SDS011;1510;51.072;6.678;2023-02-22T10:35:24;21.30;;;12.25;;
3000;SDS011;1510;51.072;6.678;2023-02-22T10:37:55;21.33;;;11.30;;
3000;SDS011;1510;51.072;6.678;2023-02-22T10:40:25;18.33;;;11.03;;
3000;SDS011;1510;51.072;6.678;2023-02-22T10:42:57;23.93;;;11.37;;
3000;SDS011;1510;51.072;6.678;2023-02-22T10:45:27;19.03;;;11.47;;
3000;SDS011;1510;51.072;6.678;2023-02-22T10:47:58;21.37;;;10.70;;
3000;SDS011;1510;51.072;6.678;2023-02-22T10:50:32;16.67;;;10.27;;
3000;SDS011;1510;51.072;6.678;2023-02-22T10:53:00;17.33;;;10.00;;
3000;SDS011;1510;51.072;6.678;2023-02-22T10:55:27;22.50;;;12.03;;
3000;SDS011;1510;51.072;6.678;2023-02-22T10:57:58;18.40;;;10.67;;
3000;SDS011;1510;51.072;6.678;2023-02-22T11:00:29;18.70;;;10.10;;
3000;SDS011;1510;51.072;6.678;2023-02-22T11:03:02;21.40;;;10.67;;
3000;SDS011;1510;51.072;6.678;2023-02-22T11:05:40;15.77;;;10.00;;
3000;SDS011;1510;51.072;6.678;2023-02-22T11:08:14;16.00;;;9.57;;
3000;SDS011;1510;51.072;6.678;2023-02-22T11:10:48;21.20;;;10.37;;
3000;SDS011;1510;51.072;6.678;2023-02-22T11:13:16;20.30;;;9.40;;
3000;SDS011;1510;51.072;6.678;2023-02-22T11:15:43;17.70;;;10.40;;
3000;SDS011;1510;51.072;6.678;2023-02-22T11:18:21;15.90;;;10.50;;
3000;SDS011;1510;51.072;6.678;2023-02-22T11:20:58;17.40;;;9.47;;
3000;SDS011;1510;51.072;6.678;2023-02-22T11:23:26;22.07;;;10.73;;
3000;SDS011;1510;51.072;6.678;2023-02-22T11:25:58;20.70;;;10.83;;
3000;SDS011;1510;51.072;6.678;2023-02-22T11:28:31;18.23;;;10.80;;
3000;SDS011;1510;51.072;6.678;2023-02-22T11:31:08;22.03;;;11.07;;
3000;SDS011;1510;51.072;6.678;2023-02-22T11:33:39;20.80;;;8.77;;
3000;SDS011;1510;51.072;6.678;2023-02-22T11:36:16;20.93;;;10.00;;
3000;SDS011;1510;51.072;6.678;2023-02-22T11:38:56;19.33;;;10.13;;
3000;SDS011;1510;51.072;6.678;2023-02-22T11:41:25;14.33;;;8.87;;
3000;SDS011;1510;51.072;6.678;2023-02-22T11:43:53;19.43;;;10.30;;
3000;SDS011;1510;51.072;6.678;2023-02-22T11:46:34;18.60;;;10.13;;
3000;SDS011;1510;51.072;6.678;2023-02-22T11:49:04;17.00;;;9.73;;
3000;SDS011;1510;51.072;6.678;2023-02-22T11:51:37;19.80;;;10.00;;
3000;SDS011;1510;51.072;6.678;2023-02-22T11:54:18;16.60;;;9.43;;
3000;SDS011;1510;51.072;6.678;2023-02-22T11:57:14;19.20;;;8.83;;
3000;SDS011;1510;51.072;6.678;2023-02-22T11:59:53;16.17;;;8.93;;
3000;SDS011;1510;51.072;6.678;2023-02-22T12:02:38;14.20;;;7.90;;
3000;SDS011;1510;51.072;6.678;2023-02-22T12:05:24;15.60;;;9.27;;
3000;SDS011;1510;51.072;6.678;2023-02-22T12:08:04;15.97;;;9.17;;
3000;SDS011;1510;51.072;6.678;2023-02-22T12:10:43;16.70;;;9.00;;
3000;SDS011;1510;51.072;6.678;2023-02-22T12:13:25;15.43;;;8.77;;
3000;SDS011;1510;51.072;6.678;2023-02-22T12:16:07;20.67;;;9.17;;
3000;SDS011;1510;51.072;6.678;2023-02-22T12:18:43;15.40;;;8.70;;
3000;SDS011;1510;51.072;6.678;2023-02-22T12:21:25;19.60;;;8.40;;
3000;SDS011;1510;51.072;6.678;2023-02-22T12:23:55;16.30;;;8.70;;
3000;SDS011;1510;51.072;6.678;2023-02-22T12:26:28;14.03;;;7.80;;
3000;SDS011;1510;51.072;6.678;2023-02-22T12:29:00;15.30;;;8.37;;
3000;SDS011;1510;51.072;6.678;2023-02-22T12:31:31;16.80;;;9.10;;
3000;SDS011;1510;51.072;6.678;2023-02-22T12:34:06;16.17;;;7.90;;
3000;SDS011;1510;51.072;6.678;2023-02-22T12:36:38;15.43;;;8.90;;
3000;SDS011;1510;51.072;6.678;2023-02-22T12:39:22;15.33;;;8.20;;
3000;SDS011;1510;51.072;6.678;2023-02-22T12:41:57;14.47;;;8.60;;
3000;SDS011;1510;51.072;6.678;2023-02-22T12:44:30;17.23;;;8.57;;
3000;SDS011;1510;51.072;6.678;2023-02-22T12:47:00;18.70;;;7.90;;
3000;SDS011;1510;51.072;6.678;2023-02-22T12:49:32;14.50;;;8.73;;
3000;SDS011;1510;51.072;6.678;2023-02-22T12:52:06;14.23;;;7.53;;
3000;SDS011;1510;51.072;6.678;2023-02-22T12:54:41;15.90;;;9.07;;
3000;SDS011;1510;51.072;6.678;2023-02-22T12:57:13;18.17;;;9.33;;
3000;SDS011;1510;51.072;6.678;2023-02-22T12:59:45;12.77;;;7.83;;
3000;SDS011;1510;51.072;6.678;2023-02-22T13:02:17;14.47;;;7.53;;
3000;SDS011;1510;51.072;6.678;2023-02-22T13:04:47;14.60;;;8.33;;
3000;SDS011;1510;51.072;6.678;2023-02-22T13:07:24;16.50;;;8.20;;
3000;SDS011;1510;51.072;6.678;2023-02-22T13:10:17;15.03;;;8.20;;
3000;SDS011;1510;51.072;6.678;2023-02-22T13:12:56;18.83;;;9.07;;
3000;SDS011;1510;51.072;6.678;2023-02-22T13:15:36;14.63;;;7.77;;
3000;SDS011;1510;51.072;6.678;2023-02-22T13:18:13;18.40;;;9.73;;
3000;SDS011;1510;51.072;6.678;2023-02-22T13:20:46;14.67;;;8.80;;
3000;SDS011;1510;51.072;6.678;2023-02-22T13:23:27;21.00;;;9.30;;
3000;SDS011;1510;51.072;6.678;2023-02-22T13:26:02;17.20;;;8.77;;
3000;SDS011;1510;51.072;6.678;2023-02-22T13:28:35;15.73;;;8.80;;
3000;SDS011;1510;51.072;6.678;2023-02-22T13:31:12;16.07;;;7.80;;
3000;SDS011;1510;51.072;6.678;2023-02-22T13:33:53;14.30;;;8.37;;
3000;SDS011;1510;51.072;6.678;2023-02-22T13:36:38;14.93;;;7.73;;
3000;SDS011;1510;51.072;6.678;2023-02-22T13:42:21;14.13;;;7.30;;
3000;SDS011;1510;51.072;6.678;2023-02-22T13:48:11;14.73;;;7.97;;
3000;SDS011;1510;51.072;6.678;2023-02-22T13:50:55;13.90;;;8.43;;
3000;SDS011;1510;51.072;6.678;2023-02-22T13:53:31;16.53;;;8.20;;
3000;SDS011;1510;51.072;6.678;2023-02-22T13:56:09;21.13;;;9.48;;
3000;SDS011;1510;51.072;6.678;2023-02-22T13:58:48;16.13;;;7.67;;
3000;SDS011;1510;51.072;6.678;2023-02-22T14:01:35;14.27;;;8.10;;
3000;SDS011;1510;51.072;6.678;2023-02-22T14:04:20;14.57;;;7.97;;
3000;SDS011;1510;51.072;6.678;2023-02-22T14:07:01;13.23;;;7.87;;
3000;SDS011;1510;51.072;6.678;2023-02-22T14:09:42;13.90;;;7.80;;
3000;SDS011;1510;51.072;6.678;2023-02-22T14:15:14;13.60;;;6.80;;
3000;SDS011;1510;51.072;6.678;2023-02-22T14:17:45;14.70;;;8.07;;
3000;SDS011;1510;51.072;6.678;2023-02-22T14:20:20;10.80;;;6.43;;
3000;SDS011;1510;51.072;6.678;2023-02-22T14:22:56;13.17;;;7.27;;
3000;SDS011;1510;51.072;6.678;2023-02-22T14:25:46;15.40;;;8.27;;
3000;SDS011;1510;51.072;6.678;2023-02-22T14:31:04;12.20;;;7.47;;
3000;SDS011;1510;51.072;6.678;2023-02-22T14:36:40;14.97;;;8.07;;
3000;SDS011;1510;51.072;6.678;2023-02-22T14:39:16;13.10;;;8.17;;
3000;SDS011;1510;51.072;6.678;2023-02-22T14:41:57;16.60;;;8.30;;
3000;SDS011;1510;51.072;6.678;2023-02-22T14:44:30;15.10;;;9.10;;
3000;SDS011;1510;51.072;6.678;2023-02-22T14:47:03;18.50;;;8.97;;
3000;SDS011;1510;51.072;6.678;2023-02-22T14:49:34;12.60;;;8.60;;
3000;SDS011;1510;51.072;6.678;2023-02-22T14:52:12;14.97;;;8.67;;
3000;SDS011;1510;51.072;6.678;2023-02-22T14:54:49;14.10;;;8.90;;
3000;SDS011;1510;51.072;6.678;2023-02-22T14:57:26;16.10;;;9.70;;
3000;SDS011;1510;51.072;6.678;2023-02-22T15:00:05;14.20;;;9.10;;
3000;SDS011;1510;51.072;6.678;2023-02-22T15:02:54;18.10;;;10.23;;
3000;SDS011;1510;51.072;6.678;2023-02-22T15:05:23;16.00;;;9.93;;
3000;SDS011;1510;51.072;6.678;2023-02-22T15:07:54;18.10;;;10.17;;
3000;SDS011;1510;51.072;6.678;2023-02-22T15:10:24;16.23;;;10.80;;
3000;SDS011;1510;51.072;6.678;2023-02-22T15:12:56;17.67;;;10.80;;
3000;SDS011;1510;51.072;6.678;2023-02-22T15:15:34;17.93;;;10.40;;
3000;SDS011;1510;51.072;6.678;2023-02-22T15:18:02;17.90;;;10.23;;
3000;SDS011;1510;51.072;6.678;2023-02-22T15:20:31;22.67;;;11.50;;